Tiempo atmosférico en la estación meteorológica de Herrera Del Duque, Badajoz (447 m.)



Fecha
DESCASC
Temp. máxima en grados centígrados (hora)
DESCASC
Temp. mínima en grados centígrados (hora)
DESCASC
Temp. media en grados centígrados
DESCASC
Racha de viento máxima en m/sg (hora)
DESCASC
Velocidad máxima media en intervalos de 10 minutos(hora)
DESCASC
Precipitaciones diarias en mm
DESCASC
Precipitaciones de 00:00 a 06:00 en mm
DESCASC
Precipitaciones de 06:00 a 12:00 en mm
DESCASC
Precipitaciones de 12:00 a 18:00 en mm
DESCASC
Precipitaciones de 18:00 a 24:00 en mm
DESCASC
05-04-2020 21.8 (16:40) 8.8 (08:10) 15.3 10.56 (23:30) 5.56 (23:40) 0 0 0 0 0
04-04-2020 20.1 (14:50) 6.4 (08:20) 13.3 8.89 (22:10) 5 (22:10) 0 0 0 0 0
03-04-2020 20.2 (17:10) 4.7 (08:00) 12.5 6.11 (13:20) 2.22 (16:10) 0 0 0 0 0
02-04-2020 16.7 (18:10) 6.2 (00:00) 11.5 10 (21:20) 5.83 (21:20) 4.8 0.2 2.8 0 1.8
01-04-2020 16.1 (17:50) 6.4 (00:00) 11.3 11.11 (19:10) 6.39 (19:20) 0.8 0.8 0 0 0
31-03-2020 16.3 (15:30) 5 (00:00) 10.6 10.83 (16:10) 5.83 (18:00) 22 4.4 11.4 1.2 5
30-03-2020 13.9 (13:10) 5.9 (00:00) 9.9 8.06 (17:00) 5 (22:10) 8.4 0 0 1.4 7
29-03-2020 20.1 (16:10) 2.8 (00:00) 11.5 6.39 (19:30) 3.61 (18:40) 0 0 0 0 0
28-03-2020 17.7 (17:00) 2.9 (00:00) 10.3 8.89 (13:20) 4.72 (13:20) 0 0 0 0 0
27-03-2020 13 (16:00) 5.4 (00:00) 9.2 9.72 (17:00) 5.83 (17:40) 0 0 0 0 0
26-03-2020 19.7 (15:50) 9.1 (00:00) 14.4 10.83 (14:50) 5.28 (17:40) 2.2 2.2 0 0 0
25-03-2020 19.3 (15:00) 4.9 (00:00) 12.1 10.83 (22:20) 6.39 (22:40) 1.2 0 0 0 1.2
24-03-2020 15.4 (14:50) 10.3 (00:00) 12.8 13.33 (13:00) 7.78 (13:30) 0 0 0 0 0
23-03-2020 17.3 (17:10) 5.8 (00:00) 11.5 10.28 (23:00) 5.56 (13:20) 0.8 0 0 0.8 0
22-03-2020 14.9 (17:30) 4.9 (06:30) 9.9 6.67 (15:00) 4.17 (14:50) 1.6 0 0 0 1.6
21-03-2020 14.9 (00:00) 7.6 (00:00) 11.2 9.44 (21:10) 5.83 (21:10) 12.4 5.4 5.2 0 1.8
20-03-2020 18.3 (15:50) 10.4 (00:00) 14.3 7.22 (23:59) 4.17 (22:30) 3.2 2.6 0.6 0 0
19-03-2020 19.7 (16:30) 7.4 (00:00) 13.6 8.06 (14:20) 3.89 (01:40) 0 0 0 0 0
18-03-2020 20.4 (14:10) 10.8 (00:00) 15.6 11.39 (01:40) 6.94 (01:30) 0 0 0 0 0
17-03-2020 18.9 (17:50) 4.2 (00:00) 11.5 11.11 (16:10) 6.11 (23:40) 0 0 0 0 0
16-03-2020 12.2 (13:10) 4.2 (00:00) 8.2 11.94 (01:50) 7.5 (01:50) 2.2 0 0 2.2 0
15-03-2020 22.4 (16:10) 9.4 (00:00) 15.9 11.39 (23:59) 6.67 (23:50) 4.6 0 0 1.2 3.4
14-03-2020 23.3 (17:20) 10.2 (00:00) 16.7 5.28 (14:40) 2.78 (14:40) 0 0 0 0 0
13-03-2020 22.1 (17:20) 9.5 (07:30) 15.8 6.39 (16:20) 4.17 (16:20) 0 0 0 0 0
12-03-2020 26.8 (17:10) 8.3 (00:00) 17.5 7.5 (14:30) 3.89 (14:30) 0 0 0 0 0
11-03-2020 26.8 (16:50) 7.7 (00:00) 17.2 3.33 (14:40) 1.67 (19:30) 0 0 0 0 0
10-03-2020 24.5 (18:10) 5.3 (00:00) 14.9 3.61 (15:40) 1.94 (14:50) 0 0 0 0 0

Gráficas

Temp. máximas Temp. mínimas Temp. medias Precipitaciones Rachas de viento máximas Velocidades máximas media en intervalos de 10 minutos

Datos horarios

Fecha y hora oficial Temperatura (ºC) Velocidad del viento (km/h) Dirección del viento Racha (km/h) Dirección de racha Precipitación (mm) Presión (hPa) Tendencia (hPa) Humedad (%)
2020-04-08 23:00:00 17 4 Sudoeste 6 Sur 0 967.5 0.8 72
2020-04-08 22:00:00 17.6 5 Sur 6 Sudoeste 0 967 0.5 69
2020-04-08 21:00:00 19.3 4 Sudoeste 6 Noroeste 0 966.7 0 64
2020-04-08 20:00:00 20.6 5 Noroeste 12 Noroeste 0 966.7 -0.4 57
2020-04-08 19:00:00 23.3 7 Oeste 12 Noroeste 0 966.5 -1.2 47
2020-04-08 18:00:00 23.1 5 Noroeste 12 Noroeste 0 966.7 -1.7 49
2020-04-08 17:00:00 21.4 7 Oeste 11 Oeste 0 967.1 -1.9 52
2020-04-08 16:00:00 22.3 6 Nordeste 14 Nordeste 0 967.7 -2.2 49
2020-04-08 15:00:00 21.8 4 Nordeste 10 Noroeste 0 968.4 -1.8 53
2020-04-08 14:00:00 20.9 3 Sudoeste 8 Norte 0 969 -1.4 61
2020-04-08 13:00:00 19.2 3 Norte 8 Norte 0 969.9 -0.3 66
2020-04-08 12:00:00 16.2 3 Oeste 6 Sur 0 970.2 0.2 84
2020-04-08 11:00:00 13.5 2 Sudoeste 4 Noroeste 0 970.4 0.7 94
2020-04-08 10:00:00 12.6 0 Calma 6 Oeste 0 970.2 0.7 94
2020-04-08 09:00:00 11.9 3 Sudoeste 5 Sudoeste 0 970 0.3 93
2020-04-08 08:00:00 10.4 0 Calma 4 Norte 0 969.7 -0.3 91
2020-04-08 07:00:00 11.4 3 Sudoeste 6 Sudeste 0 969.5 -0.9 90
2020-04-08 06:00:00 11.7 2 Nordeste 5 Sudeste 0 969.7 -1.1 90
2020-04-08 05:00:00 12.5 3 Sudeste 4 Sudoeste 0 970 -0.9 91
2020-04-08 04:00:00 12.5 2 Norte 4 Oeste 0 970.4 -0.5 90
2020-04-08 03:00:00 12.3 0 Calma 6 Sudoeste 0 970.8 -0.2 89
2020-04-08 02:00:00 12.5 3 Sudoeste 5 Sudoeste 0 970.9 0.1 89
2020-04-08 01:00:00 12.9 0 Calma 5 Sudeste 0 970.9 0.7 86
2020-04-08 00:00:00 14 2 Sudeste 7 Sur 0 971 1 83
2020-04-07 23:00:00 15 3 Sur 8 Sur 0 970.8 1.1 81
2020-04-07 22:00:00 16 4 Sur 13 Noroeste 0 970.2 0.6 79
2020-04-07 21:00:00 17.5 7 Noroeste 15 Oeste 0 970 0.5 73
2020-04-07 20:00:00 19.2 3 Noroeste 12 Norte 0 969.7 0.2 66
2020-04-07 19:00:00 18.7 9 Noroeste 21 Noroeste 0 969.6 -0.2 70
2020-04-07 18:00:00 18.2 16 Noroeste 26 Noroeste 0 969.5 -0.8 73
2020-04-07 17:00:00 20.4 11 Oeste 18 Oeste 0 969.5 -1 57
2020-04-07 16:00:00 20.4 9 Sudoeste 18 Oeste 0 969.8 -1 55
2020-04-07 15:00:00 20.1 12 Sudoeste 18 Oeste 0 970.3 -0.7 57
2020-04-07 14:00:00 20.5 10 Sudoeste 19 Sudoeste 0 970.5 -0.3 55
2020-04-07 13:00:00 19.8 8 Sudoeste 15 Oeste 0 970.8 0.4 55
2020-04-07 12:00:00 17.6 4 Sur 15 Este 0 971 0.8 71
2020-04-07 11:00:00 16.2 5 Sudoeste 11 Sudoeste 0 970.8 0.8 78
2020-04-07 10:00:00 15.2 2 Sudoeste 15 Sudeste 0.4 970.4 0.8 86
2020-04-07 09:00:00 14 6 Sur 12 Sudeste 1 970.2 0.6 90
2020-04-07 08:00:00 13.5 3 Oeste 17 Sudeste 0.2 970 0.4 91
2020-04-07 07:00:00 13.3 3 Sudoeste 10 Oeste 0 969.6 -0.1 92
2020-04-07 06:00:00 13.2 4 Oeste 8 Noroeste 0 969.6 -0.2 92
2020-04-07 05:00:00 13.4 6 Oeste 11 Oeste 0 969.6 -0.3 91
2020-04-07 04:00:00 13.8 0 Calma 7 Sudeste 0 969.7 -0.4 88
2020-04-07 03:00:00 13.9 2 Sur 9 Sudeste 0.2 969.8 -0.5 87
2020-04-07 02:00:00 14 6 Sudeste 9 Sudeste 0 969.9 -0.3 87
2020-04-07 01:00:00 14 4 Nordeste 18 Oeste 0.4 970.1 0.6 88
2020-04-07 00:00:00 14.5 3 Noroeste 5 Oeste 1.4 970.3 1.9 86
2020-04-06 23:00:00 14.7 5 Sudoeste 15 Noroeste 1.4 970.2 2.1 83
2020-04-06 22:00:00 16.4 9 Sudoeste 22 Sudoeste 0 969.5 1.7 75
2020-04-06 21:00:00 16.7 11 Sur 21 Sur 0 968.4 0.5 76
2020-04-06 20:00:00 16.6 3 Nordeste 15 Sur 6.2 968.1 -0.1 77
2020-04-06 19:00:00 19.2 5 Sur 17 Sur 0 967.8 -0.9 54
2020-04-06 18:00:00 20.1 10 Sudoeste 17 Sudoeste 0 967.9 -1.1 49
2020-04-06 17:00:00 20.6 6 Sur 20 Sur 0 968.2 -0.9 48
2020-04-06 16:00:00 19.4 8 Sur 23 Sudoeste 0 968.7 -0.2 51
2020-04-06 15:00:00 18.4 10 Sur 23 Sur 0 969 0.3 58
2020-04-06 14:00:00 17.6 10 Sur 24 Sur 0 969.1 0.6 63
2020-04-06 13:00:00 17.8 9 Sur 18 Sur 0 968.9 0.9 63
2020-04-06 12:00:00 16.4 10 Sur 17 Sudoeste 0 968.7 1.5 71
2020-04-06 11:00:00 15.3 8 Sur 19 Sur 0 968.5 2.1 78
2020-04-06 10:00:00 14.6 8 Sudoeste 19 Sudoeste 0 968 2.2 82
2020-04-06 09:00:00 14.2 6 Sudoeste 15 Sudoeste 0 967.2 1.5 83
2020-04-06 08:00:00 14.1 8 Sur 21 Sudoeste 0 966.4 0.9 83
2020-04-06 07:00:00 14 12 Sudoeste 25 Sudoeste 0.2 965.8 0.2 84
2020-04-06 06:00:00 13.8 10 Sudoeste 22 Sur 0.6 965.7 -0.2 86
2020-04-06 05:00:00 14 11 Sur 25 Sudoeste 0.2 965.5 -0.2 85
2020-04-06 04:00:00 14 13 Sudoeste 27 Sur 0.4 965.6 0.1 85
2020-04-06 03:00:00 14.5 14 Sur 32 Sur 0.4 965.9 0.8 81
2020-04-06 02:00:00 15 17 Sudoeste 40 Sur 0 965.7 0.8 76
2020-04-06 01:00:00 16.2 12 Sudoeste 36 Sur 0 965.5 1.1 65
2020-04-06 00:00:00 16.2 19 Sudoeste 38 Sudoeste 0 965.1 1.3 65
2020-04-05 23:00:00 17 15 Sudoeste 31 Sudoeste 0 964.9 1.6 59
2020-04-05 22:00:00 17.9 13 Sudoeste 31 Sudoeste 0 964.4 1.4 53
2020-04-05 21:00:00 18.1 10 Sudoeste 23 Sur 0 963.8 0.7 51
2020-04-05 20:00:00 18.9 11 Sur 29 Sudoeste 0 963.3 0.1 47
2020-04-05 19:00:00 19.3 14 Sur 30 Sur 0 963 -0.7 46
2020-04-05 18:00:00 19.5 15 Sudoeste 26 Sudoeste 0 963.1 -1 45
2020-04-05 17:00:00 19.9 9 Sur 30 Sudoeste 0 963.2 -1.4 43
2020-04-05 16:00:00 21 10 Sudoeste 28 Sudoeste 0 963.7 -1.3 40
2020-04-05 15:00:00 20.5 12 Sur 23 Sur 0 964.1 -1.5 42
2020-04-05 14:00:00 19.3 9 Sur 21 Sudeste 0 964.6 -0.8 44
2020-04-05 13:00:00 19 6 Sur 23 Sudoeste 0 965 -0.3 45
2020-04-05 12:00:00 17.9 7 Sur 22 Sur 0 965.6 0.4 46
2020-04-05 11:00:00 15.6 4 Noroeste 11 Oeste 0 965.4 1.2 59
2020-04-05 10:00:00 11.8 2 Noroeste 7 Oeste 0 965.3 1.8 78
2020-04-05 09:00:00 10.4 7 Oeste 10 Oeste 0 965.2 1.5 82
2020-04-05 08:00:00 8.9 3 Norte 6 Sur 0 964.2 0.7 82
2020-04-05 07:00:00 9.3 4 Sur 11 Sudeste 0 963.5 0 78
2020-04-05 06:00:00 10.3 4 Sudoeste 9 Oeste 0 963.7 0.3 79
2020-04-05 05:00:00 12.1 7 Oeste 10 Oeste 0 963.5 -0.2 71
2020-04-05 04:00:00 13.3 4 Sur 13 Sudeste 0 963.5 -0.2 58
2020-04-05 03:00:00 12.6 4 Sudeste 7 Sudeste 0 963.4 0 64
2020-04-05 02:00:00 13.4 3 Sudeste 18 Sur 0 963.7 0.6 58
2020-04-05 01:00:00 14.2 13 Sur 22 Sur 0 963.7 1.1 56
2020-04-05 00:00:00 14.4 13 Sur 26 Sur 0 963.4 1.1 54
2020-04-04 23:00:00 14.6 12 Sur 32 Sudeste 0 963.1 1.3 53
2020-04-04 22:00:00 14.8 17 Sudeste 28 Sudeste 0 962.6 1.2 52
2020-04-04 21:00:00 15.3 12 Sudeste 26 Sur 0 962.3 1 50
2020-04-04 20:00:00 16.8 13 Sudoeste 24 Sudoeste 0 961.8 0.6 41
2020-04-04 19:00:00 18 7 Sur 25 Sur 0 961.4 0.1 35
2020-04-04 18:00:00 18.5 12 Sur 27 Sur 0 961.3 -0.2 30
2020-04-04 17:00:00 18.9 14 Sur 27 Sudoeste 0 961.2 -0.6 31
2020-04-04 16:00:00 19.7 11 Sur 24 Sur 0 961.3 -0.8 33
2020-04-04 15:00:00 19.8 9 Sudeste 25 Sudeste 0 961.5 -0.8 32
2020-04-04 14:00:00 19.3 15 Sudeste 28 Sudeste 0 961.8 -0.5 31
2020-04-04 13:00:00 18.4 15 Este 26 Este 0 962.1 -0.2 42
2020-04-04 12:00:00 17.1 15 Este 26 Este 0 962.3 0.1 45
2020-04-04 11:00:00 14.1 3 Norte 7 Nordeste 0 962.3 0.4 65
2020-04-04 10:00:00 10.9 3 Oeste 6 Oeste 0 962.3 0.7 72
2020-04-04 09:00:00 8.5 0 Calma 6 Sudeste 0 962.2 0.6 81
2020-04-04 08:00:00 6.6 5 Sudoeste 8 Oeste 0 961.9 -0.2 87
2020-04-04 07:00:00 7 2 Oeste 9 Oeste 0 961.6 -0.8 85
2020-04-04 06:00:00 7 4 Oeste 8 Oeste 0 961.6 -1.1 86
2020-04-04 05:00:00 7.6 3 Sudoeste 6 Sudoeste 0 962.1 -0.9 82
2020-04-04 04:00:00 8.1 3 Noroeste 7 Sur 0 962.4 -0.7 78
2020-04-04 03:00:00 8.4 5 Sudoeste 6 Sudoeste 0 962.7 -0.4 81
2020-04-04 02:00:00 8.7 2 Sur 5 Sudeste 0 963 0.1 78
2020-04-04 01:00:00 9.5 2 Sur 7 Sudeste 0 963.1 0.5 75
2020-04-04 00:00:00 10.1 3 Noroeste 6 Nordeste 0 963.1 1 74
2020-04-03 23:00:00 11.5 6 Sudeste 10 Sudeste 0 962.9 0.9 66
2020-04-03 22:00:00 12.9 3 Sur 6 Sur 0 962.6 0.6 61
2020-04-03 21:00:00 16.6 4 Sudoeste 6 Oeste 0 962.1 0 50
2020-04-03 20:00:00 18.6 3 Sudeste 10 Sudeste 0 962 -0.5 36
2020-04-03 19:00:00 19.5 4 Sur 14 Noroeste 0 962 -0.8 33
2020-04-03 18:00:00 19.4 8 Oeste 14 Noroeste 0 962.1 -1.6 34
2020-04-03 17:00:00 20.1 5 Norte 14 Noroeste 0 962.5 -1.6 35
2020-04-03 16:00:00 19.1 5 Noroeste 12 Oeste 0 962.8 -1.7 37
2020-04-03 15:00:00 17.6 4 Sur 10 Este 0 963.7 -1.2 42
2020-04-03 14:00:00 17 4 Norte 22 Este 0 964.1 -0.6 41
2020-04-03 13:00:00 16.9 5 Este 13 Nordeste 0 964.5 0.1 46
2020-04-03 12:00:00 14.8 2 Nordeste 8 Norte 0 964.9 0.9 63
2020-04-03 11:00:00 11.9 3 Noroeste 6 Oeste 0 964.7 1.1 71
2020-04-03 10:00:00 9.7 3 Nordeste 7 Norte 0 964.4 1.4 82
2020-04-03 09:00:00 7.3 3 Sudoeste 10 Sudoeste 0 964 1.1 92
2020-04-03 08:00:00 4.7 0 Calma 4 Noroeste 0 963.6 0.7 89
2020-04-03 07:00:00 5.8 2 Norte 7 Sudoeste 0 963 0.1 89
2020-04-03 06:00:00 6.2 3 Sur 9 Sudeste 0 962.9 0 88
2020-04-03 05:00:00 6.4 2 Norte 8 Sudeste 0 962.9 -0.1 88
2020-04-03 04:00:00 7.4 3 Sur 7 Sudoeste 0 962.9 -0.2 87
2020-04-03 03:00:00 7.6 2 Sudoeste 6 Sur 0 962.9 0.1 85
2020-04-03 02:00:00 8.5 3 Este 8 Sudeste 0 963 0.5 83
2020-04-03 01:00:00 10.1 0 Calma 8 Nordeste 0 963.1 1.4 85
2020-04-03 00:00:00 11.3 0 Calma 8 Sudoeste 0 962.8 1.9 81
2020-04-02 23:00:00 11.7 4 Sur 15 Este 0 962.5 2.2 74
2020-04-02 22:00:00 12 6 Sur 36 Este 1.8 961.7 1.6 72
2020-04-02 21:00:00 14.7 6 Sudoeste 25 Oeste 0 960.9 1.1 58
2020-04-02 20:00:00 15.8 11 Oeste 23 Sudoeste 0 960.3 0.6 53
2020-04-02 19:00:00 16.5 13 Oeste 23 Oeste 0 960.1 0.3 49
2020-04-02 18:00:00 16.5 13 Sudoeste 22 Sudoeste 0 959.8 -0.4 51
2020-04-02 17:00:00 15.2 11 Sudoeste 19 Noroeste 0 959.7 -0.3 51
2020-04-02 16:00:00 13.9 6 Sudoeste 25 Noroeste 0 959.8 -0.5 53
2020-04-02 15:00:00 14.5 13 Noroeste 24 Noroeste 0 960.2 -0.4 59
2020-04-02 14:00:00 14.3 6 Sudoeste 11 Sudoeste 0 960 0 59
2020-04-02 13:00:00 11.7 5 Oeste 10 Oeste 0 960.3 1.2 66
2020-04-02 12:00:00 10.2 3 Noroeste 10 Noroeste 0 960.6 1.9 74
2020-04-02 11:00:00 9.2 2 Norte 9 Sudoeste 0 960 1.5 78
2020-04-02 10:00:00 8.2 6 Nordeste 10 Nordeste 0 959.1 0.5 88
2020-04-02 09:00:00 7.2 5 Nordeste 9 Nordeste 0.8 958.7 0.4 90
2020-04-02 08:00:00 7.1 2 Oeste 10 Sudoeste 1.8 958.5 0.1 88
2020-04-02 07:00:00 7.1 4 Oeste 10 Noroeste 0.2 958.6 -0.3 90
2020-04-02 06:00:00 7.1 6 Oeste 12 Oeste 0.2 958.3 -0.9 90
2020-04-02 05:00:00 7.1 5 Norte 9 Norte 0 958.4 -1.3 89
2020-04-02 04:00:00 6.8 4 Noroeste 11 Nordeste 0 958.9 -1.3 87
2020-04-02 03:00:00 6.4 5 Nordeste 9 Oeste 0 959.2 -1.1 88
2020-04-02 02:00:00 6.5 2 Nordeste 8 Norte 0 959.7 -0.5 85
2020-04-02 01:00:00 6.8 3 Sur 5 Sudoeste 0 960.2 0.3 86
2020-04-02 00:00:00 7 4 Sur 6 Sur 0 960.3 0.9 85
2020-04-01 23:00:00 7.9 0 Calma 6 Sudeste 0 960.2 0.9 83
2020-04-01 22:00:00 8.7 2 Nordeste 8 Norte 0 959.9 0.8 79
2020-04-01 21:00:00 9.9 6 Norte 14 Sur 0 959.4 0.6 73
2020-04-01 20:00:00 10.9 12 Sudoeste 40 Sudoeste 0 959.3 0.3 66
2020-04-01 19:00:00 13.6 13 Sudoeste 30 Sudoeste 0 959.1 -0.4 45
2020-04-01 18:00:00 16 6 Sudoeste 18 Oeste 0 958.8 -0.9 35
2020-04-01 17:00:00 15.4 7 Sudoeste 24 Sudoeste 0 959 -1 37
2020-04-01 16:00:00 13.8 10 Sudoeste 25 Sudoeste 0 959.5 -1 45
2020-04-01 15:00:00 14.7 13 Oeste 27 Sudoeste 0 959.7 -0.8 39
2020-04-01 14:00:00 13.6 13 Sudoeste 28 Sudoeste 0 960 -0.4 47
2020-04-01 13:00:00 11.8 9 Oeste 19 Oeste 0 960.5 0.6 63
2020-04-01 12:00:00 11.4 9 Sudoeste 18 Sudoeste 0 960.5 0.8 66
2020-04-01 11:00:00 11 4 Este 13 Noroeste 0 960.4 1.3 68
2020-04-01 10:00:00 8.8 7 Sudeste 15 Sudeste 0 959.9 1.4 67
2020-04-01 09:00:00 7 4 Sudeste 7 Sudeste 0 959.7 1.4 80
2020-04-01 08:00:00 6.4 6 Sudoeste 9 Sur 0 959.1 0.8 81
2020-04-01 07:00:00 7.4 2 Sudeste 5 Sur 0 958.5 0.2 79
2020-04-01 06:00:00 7.4 3 Sudeste 11 Sur 0.2 958.3 -0.3 80
2020-04-01 05:00:00 7.6 8 Sur 12 Sur 0.6 958.3 0.1 80
2020-04-01 04:00:00 8.2 3 Sudeste 15 Oeste 0 958.3 0.7 76
2020-04-01 03:00:00 8.4 9 Oeste 18 Oeste 0 958.6 1.3 77
2020-04-01 02:00:00 9.1 6 Noroeste 19 Oeste 0 958.2 1.5 86
2020-04-01 01:00:00 9.3 6 Sur 8 Sur 0 957.6 1.9 91
2020-04-01 00:00:00 9.6 0 Calma 7 Oeste 0 957.3 2.6 90
2020-03-31 23:00:00 9.9 4 Oeste 11 Noroeste 0 956.7 2.4 89
2020-03-31 22:00:00 10.2 3 Norte 11 Noroeste 0.2 955.7 2.2 88
2020-03-31 21:00:00 10.6 3 Este 12 Sudeste 0.2 954.7 1 82
2020-03-31 20:00:00 11.3 4 Norte 14 Sur 0.2 954.3 2.4 77
2020-03-31 19:00:00 11.7 6 Sur 36 Oeste 4.4 953.5 1.7 72
2020-03-31 18:00:00 12.2 21 Sudoeste 38 Sudeste 0.8 953.7 1.5 71
2020-03-31 17:00:00 14.7 9 Sur 39 Sudeste 0 951.9 -0.6 62
2020-03-31 16:00:00 14.8 12 Sur 30 Sur 0 951.8 -0.6 62
2020-03-31 15:00:00 14.6 11 Sur 25 Sudeste 0 952.2 0.3 63
2020-03-31 14:00:00 13.2 8 Sudoeste 21 Oeste 0 952.5 1 70
2020-03-31 13:00:00 12.3 6 Oeste 25 Sudoeste 0.4 952.4 0.9 79
2020-03-31 12:00:00 8.1 6 Noroeste 10 Sudoeste 0.6 951.9 0.3 92
2020-03-31 11:00:00 6.9 6 Oeste 11 Oeste 2.2 951.5 0.1 92
2020-03-31 10:00:00 6.4 9 Oeste 13 Oeste 2.2 951.5 -0.4 92
2020-03-31 09:00:00 6 6 Oeste 9 Oeste 2.2 951.6 -0.4 92
2020-03-31 08:00:00 5.6 5 Oeste 10 Oeste 1.8 951.4 -1.2 91
2020-03-31 07:00:00 5.6 5 Oeste 10 Oeste 2.4 951.9 -1.4 90
2020-03-31 06:00:00 5.7 5 Nordeste 17 Nordeste 1.8 952 -2 89
2020-03-31 05:00:00 5.5 5 Norte 15 Nordeste 2 952.6 -2.8 89
2020-03-31 04:00:00 5.4 10 Nordeste 18 Nordeste 0.4 953.3 -2.8 86
2020-03-31 03:00:00 5.1 11 Nordeste 17 Nordeste 0.2 954 -2.6 87
2020-03-31 02:00:00 5.5 11 Nordeste 21 Nordeste 0 955.4 -1.5 82
2020-03-31 01:00:00 5.9 11 Nordeste 23 Nordeste 0 956.1 -0.6 80
2020-03-31 00:00:00 5.9 14 Nordeste 27 Este 0 956.6 -0.4 81
2020-03-30 23:00:00 6.2 14 Este 29 Nordeste 0 956.9 -0.3 81
2020-03-30 22:00:00 6.5 14 Nordeste 27 Nordeste 0.2 956.7 -0.5 84
2020-03-30 21:00:00 6.8 14 Nordeste 22 Nordeste 1.6 957 -0.1 84
2020-03-30 20:00:00 7.5 12 Norte 18 Norte 2.8 957.2 0 87
2020-03-30 19:00:00 8.8 7 Norte 14 Nordeste 2.4 957.2 -0.6 84
2020-03-30 18:00:00 9.8 8 Nordeste 27 Norte 0.6 957.1 -1.6 81
2020-03-30 17:00:00 11 18 Norte 29 Norte 0 957.2 -1.9 75
2020-03-30 16:00:00 12.1 4 Sudoeste 19 Sur 0.6 957.8 -1.7 76
2020-03-30 15:00:00 13 7 Sur 17 Sur 0.2 958.7 -1.4 72
2020-03-30 14:00:00 13.1 6 Sur 12 Sur 0 959.1 -1.1 69
2020-03-30 13:00:00 13.8 3 Sur 11 Sudeste 0 959.5 -0.8 63
2020-03-30 12:00:00 12.7 3 Sudeste 9 Sur 0 960.1 0.1 68
2020-03-30 11:00:00 12.1 4 Noroeste 6 Noroeste 0 960.2 0.2 69
2020-03-30 10:00:00 9.5 4 Sudoeste 8 Oeste 0 960.3 0.3 78
2020-03-30 09:00:00 8.2 5 Sudoeste 6 Sudoeste 0 960 -0.5 83
2020-03-30 08:00:00 8.5 6 Sudoeste 8 Sudoeste 0 960 -1 80
2020-03-30 07:00:00 10.3 3 Sur 11 Oeste 0 960 -1.5 72
2020-03-30 06:00:00 9.2 4 Sudeste 9 Oeste 0 960.5 -1.4 76
2020-03-30 05:00:00 11.5 8 Oeste 17 Oeste 0 961 -1.4 67
2020-03-30 04:00:00 11.7 10 Oeste 18 Sudoeste 0 961.5 -1.4 67
2020-03-30 03:00:00 11.8 6 Sudoeste 20 Sudoeste 0 961.9 -1.3 62
2020-03-30 02:00:00 9.1 2 Sur 7 Sudeste 0 962.4 -1 69
2020-03-30 01:00:00 10.8 4 Sur 7 Sur 0 962.9 -0.2 62
2020-03-30 00:00:00 11.3 2 Este 5 Sudoeste 0 963.2 0.2 63
2020-03-29 23:00:00 12.4 0 Calma 8 Sur 0 963.4 0.3 55
2020-03-29 22:00:00 13.6 3 Sudoeste 8 Sudoeste 0 963.1 0 50
2020-03-29 21:00:00 15 5 Sudoeste 11 Oeste 0 963 -0.2 38
2020-03-29 20:00:00 16.9 9 Sudoeste 23 Sudoeste 0 963.1 -0.7 33
2020-03-29 19:00:00 18.2 12 Oeste 19 Oeste 0 963.1 -1 31
2020-03-29 18:00:00 19 9 Oeste 21 Noroeste 0 963.2 -1.8 28
2020-03-29 17:00:00 18.4 4 Sudoeste 14 Oeste 0 963.8 -1.7 30
2020-03-29 16:00:00 19.6 7 Noroeste 14 Noroeste 0 964.1 -2.1 30
2020-03-29 15:00:00 18.6 7 Nordeste 16 Nordeste 0 965 -1.7 29
2020-03-29 14:00:00 17.6 7 Norte 15 Norte 0 965.5 -1.5 32
2020-03-29 13:00:00 15.4 6 Noroeste 10 Oeste 0 966.2 -0.6 44
2020-03-29 12:00:00 13.9 3 Norte 8 Norte 0 966.7 0.1 48
2020-03-29 11:00:00 11.1 3 Nordeste 7 Noroeste 0 967 0.8 61
2020-03-29 10:00:00 8.1 3 Norte 5 Noroeste 0 966.8 0.7 67
2020-03-29 09:00:00 4.5 2 Sur 4 Sudeste 0 966.6 0.5 80
2020-03-29 08:00:00 3.3 0 Calma 3 Sur 0 966.2 0 78
2020-03-29 07:00:00 5.2 2 Sudoeste 6 Sudoeste 0 966.1 -0.4 74
2020-03-29 06:00:00 5.6 3 Oeste 6 Sudoeste 0 966.1 -0.6 73
2020-03-29 05:00:00 4.8 3 Oeste 5 Sudoeste 0 966.2 -0.5 77
2020-03-29 03:00:00 6.6 2 Sudoeste 6 Sudoeste 0 966.7 0.3 73
2020-03-29 01:00:00 6.7 0 Calma 4 Sur 0 966.7 0.7 71
2020-03-29 00:00:00 8 3 Sur 8 Sudeste 0 966.5 1.1 67
2020-03-28 23:00:00 9 5 Sur 10 Noroeste 0 966.4 1.8 66
2020-03-28 22:00:00 9.6 3 Norte 6 Sudeste 0 966 1.8 66
2020-03-28 21:00:00 11.7 4 Este 11 Sudeste 0 965.4 1.6 54
2020-03-28 20:00:00 13.9 5 Sur 10 Sudeste 0 964.6 0.9 44
2020-03-28 19:00:00 16.2 5 Sur 12 Sudeste 0 964.2 0.4 36
2020-03-28 18:00:00 17 5 Sudeste 17 Sudeste 0 963.8 -0.4 32
2020-03-28 17:00:00 17.6 9 Sudeste 24 Sudeste 0 963.7 -0.8 31
2020-03-28 16:00:00 17.1 12 Este 24 Sudeste 0 963.8 -1.2 33
2020-03-28 15:00:00 16 10 Sur 26 Sur 0 964.2 -1.1 37
2020-03-28 14:00:00 15.3 14 Sudeste 32 Sudeste 0 964.5 -0.8 42
2020-03-28 13:00:00 14.8 11 Sudeste 22 Este 0 965 0 43
2020-03-28 12:00:00 13.2 11 Este 24 Este 0 965.3 0.9 50
2020-03-28 11:00:00 11.5 12 Este 23 Este 0 965.3 1.4 54
2020-03-28 10:00:00 10.7 12 Nordeste 18 Nordeste 0 965 1.6 61
2020-03-28 09:00:00 8.4 3 Oeste 8 Noroeste 0 964.4 1.3 69
2020-03-28 08:00:00 4.7 4 Oeste 8 Noroeste 0 963.9 1.1 80
2020-03-28 07:00:00 4.1 5 Sudoeste 15 Este 0 963.4 0.6 79
2020-03-28 06:00:00 3.2 3 Norte 7 Nordeste 0 963.1 0.3 82
2020-03-28 05:00:00 3.5 3 Sur 8 Sur 0 962.8 -0.1 82
2020-03-28 04:00:00 3.6 5 Sudoeste 11 Nordeste 0 962.8 0.3 82
2020-03-28 03:00:00 4.2 5 Nordeste 8 Este 0 962.8 0.3 78
2020-03-28 02:00:00 5 3 Sur 6 Sudeste 0 962.9 0.9 76
2020-03-28 01:00:00 5.3 4 Este 14 Nordeste 0 962.5 0.9 74
2020-03-28 00:00:00 5.6 4 Nordeste 6 Este 0 962.5 1.4 72
2020-03-27 23:00:00 6.1 2 Sudeste 8 Este 0 962 1.8 71
2020-03-27 22:00:00 6.5 3 Sudeste 11 Este 0 961.6 2 68
2020-03-27 21:00:00 7.3 5 Nordeste 18 Este 0 961.1 2.1 65
2020-03-27 20:00:00 8.9 12 Este 30 Este 0 960.2 1.4 57
2020-03-27 19:00:00 10.3 18 Este 28 Este 0 959.6 1.1 50
2020-03-27 18:00:00 11.5 17 Este 34 Este 0 959 0.6 48
2020-03-27 17:00:00 12 19 Este 35 Este 0 958.8 -0.1 50
2020-03-27 16:00:00 13 17 Este 31 Este 0 958.5 -0.1 47
2020-03-27 15:00:00 12.3 18 Este 32 Este 0 958.4 -0.1 52
2020-03-27 14:00:00 11.2 17 Este 29 Nordeste 0 958.9 0.9 57
2020-03-27 13:00:00 10.2 19 Nordeste 33 Este 0 958.6 1.3 57
2020-03-27 12:00:00 9.8 19 Este 30 Este 0 958.5 1.7 61
2020-03-27 11:00:00 9.6 12 Nordeste 18 Este 0 958 2 60
2020-03-27 10:00:00 8.4 13 Nordeste 19 Nordeste 0 957.3 1.8 65
2020-03-27 09:00:00 7.9 9 Norte 12 Norte 0 956.8 1.3 73
2020-03-27 08:00:00 8.2 5 Sudoeste 8 Sudoeste 0 956 0.7 88
2020-03-27 07:00:00 7.8 5 Sudoeste 7 Sudoeste 0 955.5 0.1 87
2020-03-27 06:00:00 7.8 3 Norte 5 Norte 0 955.5 -0.4 88
2020-03-27 05:00:00 7.4 0 Calma 9 Sudoeste 0 955.3 -1.1 86
2020-03-27 04:00:00 8.1 5 Sudoeste 9 Sudeste 0 955.4 -1.2 84
2020-03-27 03:00:00 8.6 3 Sur 15 Oeste 0 955.9 -0.6 81
2020-03-27 02:00:00 9.9 5 Sudoeste 16 Sudoeste 0 956.4 0.2 76
2020-03-27 01:00:00 10.9 6 Sudoeste 16 Sur 0 956.6 0.3 73
2020-03-27 00:00:00 11.2 8 Sur 17 Noroeste 0 956.5 0.3 71
2020-03-26 23:00:00 12.3 7 Noroeste 25 Oeste 0 956.2 0.3 66
2020-03-26 22:00:00 13.5 10 Oeste 20 Sudoeste 0 956.3 0.6 59
2020-03-26 21:00:00 14.1 5 Oeste 10 Oeste 0 956.2 0.7 44
2020-03-26 20:00:00 14.9 6 Sudoeste 18 Oeste 0 955.9 0.4 41
2020-03-26 19:00:00 17.7 14 Oeste 30 Oeste 0 955.7 -0.1 29
2020-03-26 18:00:00 18.6 17 Oeste 31 Oeste 0 955.5 -0.8 27
2020-03-26 17:00:00 19.4 18 Oeste 33 Oeste 0 955.5 -1.5 31
2020-03-26 16:00:00 19.5 17 Oeste 30 Noroeste 0 955.8 -1.9 32
2020-03-26 15:00:00 19 18 Oeste 39 Sudoeste 0 956.3 -2.1 35
2020-03-26 14:00:00 17.4 16 Oeste 25 Oeste 0 957 -1.8 48
2020-03-26 13:00:00 16.3 6 Oeste 18 Oeste 0 957.7 -1.3 55
2020-03-26 12:00:00 14.5 7 Oeste 14 Oeste 0 958.4 -0.6 62
2020-03-26 11:00:00 12.8 6 Noroeste 11 Oeste 0 958.8 0.1 68
2020-03-26 10:00:00 12.6 4 Noroeste 9 Oeste 0 959 0.6 72
2020-03-26 09:00:00 11.7 3 Nordeste 11 Sudoeste 0 959 0.6 78
2020-03-26 08:00:00 9.8 7 Oeste 19 Oeste 0 958.7 0.2 85
2020-03-26 07:00:00 9.4 6 Sur 11 Sudoeste 0 958.4 -0.7 85
2020-03-26 06:00:00 10.3 6 Sudoeste 16 Sudoeste 0 958.4 -1.4 83
2020-03-26 05:00:00 10.5 5 Este 19 Oeste 0 958.5 -1.9 80
2020-03-26 04:00:00 11.3 8 Noroeste 17 Norte 0 959.1 -1.7 77
2020-03-26 03:00:00 11.6 6 Oeste 22 Sudoeste 0 959.8 -2.1 75
2020-03-26 02:00:00 11.2 8 Sudoeste 18 Sur 0.6 960.4 -0.8 79
2020-03-26 01:00:00 10.9 6 Sudoeste 19 Norte 1.6 960.8 -1.2 83
2020-03-26 00:00:00 12 17 Oeste 37 Norte 0.2 961.9 0.6 73
2020-03-25 23:00:00 11.4 15 Oeste 39 Noroeste 0.6 961.2 0.2 75
2020-03-25 22:00:00 12.2 8 Sudoeste 26 Norte 0.4 962 1 75
2020-03-25 21:00:00 13.9 5 Oeste 15 Oeste 0 961.3 0.2 60
2020-03-25 20:00:00 14.6 7 Sur 14 Sudoeste 0 961 -0.5 56
2020-03-25 19:00:00 15.9 10 Sudoeste 19 Sudoeste 0 961 -0.7 50
2020-03-25 18:00:00 16.8 11 Oeste 19 Oeste 0 961.1 -1.2 51
2020-03-25 17:00:00 18.1 14 Oeste 24 Oeste 0 961.5 -1.5 42
2020-03-25 16:00:00 18.8 8 Oeste 21 Oeste 0 961.7 -2.2 36
2020-03-25 15:00:00 19 6 Oeste 14 Noroeste 0 962.3 -1.9 36
2020-03-25 14:00:00 17.9 5 Noroeste 14 Oeste 0 963 -1.3 38
2020-03-25 13:00:00 17 8 Noroeste 14 Norte 0 963.9 -0.2 43
2020-03-25 12:00:00 15.6 3 Sudeste 11 Noroeste 0 964.2 -0.1 45
2020-03-25 11:00:00 13.7 5 Noroeste 11 Norte 0 964.3 -0.1 50
2020-03-25 10:00:00 11.7 3 Noroeste 6 Norte 0 964.1 0.1 60
2020-03-25 09:00:00 9.4 2 Sudeste 4 Noroeste 0 964.3 0.3 69
2020-03-25 08:00:00 5.6 2 Sur 6 Sudoeste 0 964.4 0.9 80
2020-03-25 07:00:00 5.2 4 Oeste 6 Sudoeste 0 964 0.4 82
2020-03-25 06:00:00 5.7 2 Sudoeste 6 Norte 0 964 0.1 80
2020-03-25 05:00:00 6.8 4 Sudeste 8 Sur 0 963.5 -0.1 75
2020-03-25 04:00:00 8.1 2 Sur 12 Norte 0 963.6 -0.1 70
2020-03-25 03:00:00 9.8 3 Nordeste 19 Este 0 963.9 0.4 62
2020-03-25 02:00:00 10.5 13 Este 23 Este 0 963.6 0.2 61
2020-03-25 01:00:00 10.5 13 Este 23 Este 0 963.7 0.6 63
2020-03-25 00:00:00 10.4 7 Este 28 Este 0 963.5 1 64
2020-03-24 23:00:00 10.8 16 Este 33 Este 0 963.4 1.4 63
2020-03-24 22:00:00 11.5 17 Este 40 Este 0 963.1 1.7 60
2020-03-24 21:00:00 12.3 24 Este 38 Este 0 962.5 1.7 57
2020-03-24 20:00:00 12.6 18 Este 35 Este 0 962 1.5 57
2020-03-24 19:00:00 13.6 19 Este 41 Este 0 961.4 1 57
2020-03-24 18:00:00 14.9 23 Nordeste 41 Este 0 960.8 0.1 53
2020-03-24 17:00:00 14.8 18 Este 40 Este 0 960.5 -0.6 52
2020-03-24 16:00:00 15.2 20 Este 42 Este 0 960.4 -0.8 51
2020-03-24 15:00:00 14.7 23 Este 45 Este 0 960.7 -0.6 53
2020-03-24 14:00:00 14.8 25 Este 48 Este 0 961.1 0.1 56
2020-03-24 13:00:00 14.9 27 Nordeste 48 Nordeste 0 961.2 0.3 60
2020-03-24 12:00:00 13.6 22 Este 42 Este 0 961.3 0.6 58
2020-03-24 11:00:00 13.3 23 Este 45 Nordeste 0 961 0.5 60
2020-03-24 10:00:00 13.5 23 Este 42 Este 0 960.9 0.6 59
2020-03-24 09:00:00 13 21 Este 34 Este 0 960.7 0.5 60
2020-03-24 08:00:00 11.6 17 Este 31 Este 0 960.5 0.4 66
2020-03-24 07:00:00 11.3 12 Este 27 Este 0 960.3 0 68
2020-03-24 06:00:00 11.6 13 Este 23 Nordeste 0 960.2 -0.6 67
2020-03-24 05:00:00 11.6 9 Este 27 Este 0 960.1 -1 66
2020-03-24 04:00:00 11.5 12 Este 26 Este 0 960.3 -1.1 65
2020-03-24 03:00:00 11.5 13 Este 22 Este 0 960.8 -0.7 66
2020-03-24 02:00:00 11.7 17 Este 30 Este 0 961.1 -0.2 69
2020-03-24 01:00:00 11.4 11 Este 29 Este 0 961.4 0.3 74
2020-03-24 00:00:00 12 16 Este 31 Este 0 961.5 0.7 67
2020-03-23 23:00:00 12.6 19 Este 37 Este 0 961.3 1.4 62
2020-03-23 22:00:00 12.3 9 Este 17 Este 0 961.1 1.9 63
2020-03-23 21:00:00 12.5 10 Este 26 Este 0 960.8 2 61
2020-03-23 20:00:00 13.9 18 Sudeste 31 Este 0 959.9 1.1 52
2020-03-23 19:00:00 15.6 8 Este 26 Este 0 959.2 -0.1 40
2020-03-23 18:00:00 17.1 12 Este 24 Este 0 958.8 -1.2 37
2020-03-23 17:00:00 17.2 9 Este 25 Este 0 958.8 -2 42
2020-03-23 16:00:00 16.2 10 Nordeste 22 Nordeste 0.6 959.3 -2 44
2020-03-23 15:00:00 14.5 13 Nordeste 30 Nordeste 0.2 960 -1.8 60
2020-03-23 14:00:00 13.8 14 Nordeste 31 Nordeste 0 960.8 -1.3 57
2020-03-23 13:00:00 14.5 13 Nordeste 20 Nordeste 0 961.3 -0.8 58
2020-03-23 12:00:00 12.6 4 Este 9 Norte 0 961.8 0 67
2020-03-23 11:00:00 11.2 5 Oeste 10 Norte 0 962.1 0.6 74
2020-03-23 10:00:00 9.4 0 Calma 4 Norte 0 962.1 1.2 80
2020-03-23 09:00:00 8.1 2 Sudoeste 6 Noroeste 0 961.8 1 87
2020-03-23 08:00:00 6.2 2 Norte 9 Norte 0 961.5 1.1 89
2020-03-23 07:00:00 6.2 3 Nordeste 6 Sur 0 960.9 0.8 88
2020-03-23 06:00:00 6.7 4 Sudeste 6 Sudeste 0 960.8 0.6 88
2020-03-23 05:00:00 7.4 4 Sudeste 7 Sudeste 0 960.4 0.1 88
2020-03-23 04:00:00 7.5 7 Sudeste 9 Sudeste 0 960.1 -0.6 87
2020-03-23 03:00:00 8 0 Calma 5 Sur 0 960.2 -0.4 86
2020-03-23 02:00:00 8.9 3 Sudeste 4 Sur 0 960.3 -0.6 85
2020-03-23 01:00:00 9.3 4 Sudoeste 5 Oeste 0 960.7 0.1 85
2020-03-23 00:00:00 9.1 2 Sur 6 Norte 0 960.6 0.3 83
2020-03-22 23:00:00 9 5 Noroeste 9 Norte 0 960.9 1.1 86
2020-03-22 22:00:00 9.5 3 Oeste 7 Noroeste 0 960.6 1.8 86
2020-03-22 21:00:00 9.9 3 Oeste 5 Oeste 0 960.3 2.1 84
2020-03-22 20:00:00 10.1 3 Nordeste 22 Nordeste 1.6 959.8 1.6 82
2020-03-22 19:00:00 13.2 4 Este 13 Este 0 958.8 0.1 58
2020-03-22 18:00:00 14.5 5 Norte 12 Oeste 0 958.2 -0.5 52
2020-03-22 17:00:00 14.3 4 Noroeste 13 Sudeste 0 958.2 -0.6 50
2020-03-22 16:00:00 12.3 10 Sudeste 23 Este 0 958.7 -0.6 56
2020-03-22 15:00:00 13.1 14 Este 24 Este 0 958.7 -0.9 51
2020-03-22 14:00:00 13.4 8 Este 17 Este 0 958.8 -0.8 52
2020-03-22 13:00:00 13.9 8 Este 14 Este 0 959.3 -0.2 52
2020-03-22 12:00:00 12.8 7 Este 17 Este 0 959.6 0.3 58
2020-03-22 11:00:00 12.2 4 Nordeste 11 Este 0 959.6 0.7 66
2020-03-22 10:00:00 8.8 3 Oeste 6 Norte 0 959.5 1 76
2020-03-22 09:00:00 8 2 Oeste 5 Noroeste 0 959.3 1 80
2020-03-22 08:00:00 5.8 3 Sur 10 Norte 0 958.9 0.7 88
2020-03-22 07:00:00 5.3 4 Oeste 7 Sudoeste 0 958.5 0.4 88
2020-03-22 06:00:00 5.4 6 Sudeste 8 Sur 0 958.3 -0.1 86
2020-03-22 05:00:00 6.9 3 Sudeste 13 Sudeste 0 958.2 -0.3 79
2020-03-22 04:00:00 7.9 5 Sudeste 13 Sudeste 0 958.1 -0.6 77
2020-03-22 03:00:00 8.7 7 Sudeste 13 Sudeste 0 958.4 -0.4 74
2020-03-22 02:00:00 8.8 8 Sur 19 Sudeste 0 958.5 -0.3 71
2020-03-22 01:00:00 9.2 12 Sudeste 23 Este 0 958.7 0 74
2020-03-22 00:00:00 9.4 8 Sudeste 21 Sudeste 0 958.8 0.3 77
2020-03-21 23:00:00 8.6 2 Este 16 Sudeste 0 958.8 0.7 83
2020-03-21 22:00:00 9.1 9 Este 34 Sudeste 0.6 958.7 1 76
2020-03-21 21:00:00 9.5 19 Sudeste 33 Sudeste 0.4 958.5 1.5 71
2020-03-21 20:00:00 9.8 14 Sur 28 Sudeste 0 958.1 0.7 74
2020-03-21 19:00:00 10 12 Sur 32 Sur 0.8 957.7 -0.1 75
2020-03-21 18:00:00 13.3 13 Este 23 Este 0 957 -1.5 54
2020-03-21 17:00:00 13.4 10 Este 19 Este 0 957.4 -2 54
2020-03-21 16:00:00 13.6 9 Este 19 Este 0 957.8 -2.2 52
2020-03-21 15:00:00 13 7 Este 17 Sudeste 0 958.5 -2 55
2020-03-21 14:00:00 12.8 6 Sudeste 17 Sudeste 0 959.4 -1 53
2020-03-21 13:00:00 11.9 10 Sudeste 20 Sudeste 0 960 -0.5 61
2020-03-21 12:00:00 10.6 6 Sur 22 Sudeste 0 960.5 0.5 70
2020-03-21 11:00:00 9 13 Sudeste 23 Sudeste 0 960.4 0.4 77
2020-03-21 10:00:00 8.2 9 Sudeste 14 Sudeste 0.2 960.5 1.1 81
2020-03-21 09:00:00 7.6 7 Este 15 Sudeste 1.4 960 1.3 84
2020-03-21 08:00:00 7.9 8 Sur 32 Oeste 2 960 1.8 84
2020-03-21 07:00:00 8.9 15 Sudoeste 31 Sudoeste 1.6 959.4 1 81
2020-03-21 06:00:00 10.2 20 Sudoeste 31 Sudoeste 2.8 958.7 -0.5 81
2020-03-21 05:00:00 11.2 8 Sudeste 18 Este 1.2 958.2 -1.5 85
2020-03-21 04:00:00 11.8 9 Este 20 Sudeste 1.4 958.4 -1.6 82
2020-03-21 03:00:00 13.1 9 Sudeste 21 Sudeste 0 959.2 -0.8 70
2020-03-21 02:00:00 13.9 6 Sudeste 22 Sudeste 0 959.7 0.2 63
2020-03-21 01:00:00 14.3 11 Sudeste 30 Sudeste 0 960 0.4 61
2020-03-21 00:00:00 14.9 13 Sudeste 26 Sudeste 0 960 0.5 59
2020-03-20 23:00:00 14.8 13 Sudeste 24 Sudeste 0 959.5 -0.1 58
2020-03-20 22:00:00 15.5 12 Sudeste 23 Sudeste 0 959.6 -0.2 55
2020-03-20 21:00:00 14.9 6 Sur 15 Sudeste 0 959.5 -0.1 58
2020-03-20 20:00:00 15.6 8 Sur 18 Sur 0 959.6 -0.6 61
2020-03-20 19:00:00 16.8 6 Sur 18 Sudeste 0 959.8 -0.7 55
2020-03-20 18:00:00 17.5 13 Sudeste 21 Sudeste 0 959.6 -1.7 51
2020-03-20 17:00:00 17 3 Sur 11 Norte 0 960.2 -1.8 54
2020-03-20 16:00:00 17.7 9 Norte 17 Norte 0 960.5 -2 54
2020-03-20 15:00:00 16.6 12 Norte 16 Norte 0 961.3 -1.7 61
2020-03-20 14:00:00 17.4 6 Sudeste 15 Sudeste 0 962 -1.2 55
2020-03-20 13:00:00 16.2 5 Este 17 Sudeste 0 962.5 -0.5 62
2020-03-20 12:00:00 16.1 4 Sudeste 14 Sudeste 0 963 0.5 61
2020-03-20 11:00:00 13.3 9 Sudeste 17 Sudeste 0 963.2 1 69
2020-03-20 10:00:00 12.6 6 Nordeste 12 Nordeste 0 963 0.7 76
2020-03-20 09:00:00 11.3 3 Sudeste 8 Nordeste 0 962.5 0.5 82
2020-03-20 08:00:00 10.5 3 Nordeste 5 Nordeste 0.2 962.2 -0.1 88
2020-03-20 07:00:00 10.5 3 Noroeste 7 Norte 0.4 962.3 0 87
2020-03-20 06:00:00 10.6 6 Nordeste 16 Este 2 962 -0.5 87
2020-03-20 05:00:00 11.4 8 Este 13 Este 0.6 962.3 -0.4 78
2020-03-20 04:00:00 11.6 2 Oeste 9 Oeste 0 962.3 -0.5 73
2020-03-20 03:00:00 11.6 6 Oeste 10 Oeste 0 962.5 -0.5 74
2020-03-20 02:00:00 11.8 2 Norte 6 Sudeste 0 962.7 -0.3 71
2020-03-20 01:00:00 11.9 4 Oeste 7 Oeste 0 962.8 -0.1 73
2020-03-20 00:00:00 11.9 3 Noroeste 7 Noroeste 0 963 0.1 72
2020-03-19 23:00:00 11.6 4 Norte 8 Oeste 0 963 0.4 73
2020-03-19 22:00:00 13.2 0 Calma 8 Sudoeste 0 962.9 0.2 66
2020-03-19 21:00:00 14.1 2 Sur 5 Norte 0 962.9 0.2 62
2020-03-19 20:00:00 16.1 5 Sudeste 11 Sudeste 0 962.6 -0.4 52
2020-03-19 19:00:00 17.8 9 Este 22 Este 0 962.7 -0.8 46
2020-03-19 18:00:00 18.9 12 Este 22 Nordeste 0 962.7 -1.5 41
2020-03-19 17:00:00 19.5 12 Este 24 Nordeste 0 963 -2.1 39
2020-03-19 16:00:00 19.5 11 Este 26 Este 0 963.5 -2.6 38
2020-03-19 15:00:00 18.9 13 Este 29 Nordeste 0 964.2 -2.7 41
2020-03-19 14:00:00 18.4 14 Nordeste 26 Nordeste 0 965.1 -2.4 43
2020-03-19 13:00:00 17.2 9 Este 20 Nordeste 0 966.1 -1.5 48
2020-03-19 12:00:00 16 8 Nordeste 16 Este 0 966.9 -0.9 50
2020-03-19 11:00:00 14 11 Este 18 Este 0 967.5 -0.2 55
2020-03-19 10:00:00 12.3 10 Este 18 Nordeste 0 967.6 -0.3 60
2020-03-19 09:00:00 10.1 4 Este 10 Este 0 967.8 0.1 67
2020-03-19 08:00:00 7.5 6 Este 9 Este 0 967.7 0.1 69
2020-03-19 07:00:00 8.1 3 Sur 10 Este 0 967.9 0.2 65
2020-03-19 06:00:00 9.8 5 Sudeste 13 Este 0 967.7 -0.1 56
2020-03-19 05:00:00 10.4 7 Nordeste 20 Este 0 967.6 -0.3 50
2020-03-19 04:00:00 11.8 8 Sudeste 22 Este 0 967.7 -0.6 40
2020-03-19 03:00:00 12.1 4 Sudoeste 26 Este 0 967.8 -0.8 39
2020-03-19 02:00:00 12.5 14 Nordeste 23 Nordeste 0 967.9 -1 41
2020-03-19 01:00:00 11.9 9 Nordeste 15 Nordeste 0 968.3 -0.8 56
2020-03-19 00:00:00 12.4 10 Norte 15 Nordeste 0 968.6 -0.2 56
2020-03-18 23:00:00 12.5 7 Norte 13 Nordeste 0 968.9 0.4 57
2020-03-18 22:00:00 13.1 8 Norte 16 Este 0 969.1 1.2 56
2020-03-18 21:00:00 14.3 8 Nordeste 17 Nordeste 0 968.8 1.2 54
2020-03-18 20:00:00 15.2 9 Nordeste 24 Nordeste 0 968.5 0.7 50
2020-03-18 19:00:00 16.4 13 Nordeste 32 Este 0 967.9 -0.2 49
2020-03-18 18:00:00 17.6 15 Este 32 Este 0 967.6 -0.5 49
2020-03-18 17:00:00 18.3 19 Este 32 Nordeste 0 967.8 -1 42
2020-03-18 16:00:00 18.7 19 Nordeste 32 Nordeste 0 968.1 -1.4 46
2020-03-18 15:00:00 19.9 12 Este 30 Este 0 968.1 -1.9 38
2020-03-18 14:00:00 19.9 17 Este 32 Este 0 968.8 -1.6 37
2020-03-18 13:00:00 17.6 17 Nordeste 30 Este 0 969.5 -1 47
2020-03-18 12:00:00 17.8 17 Este 32 Este 0 970 -0.4 43
2020-03-18 11:00:00 16.3 18 Este 31 Este 0 970.4 0.3 48
2020-03-18 10:00:00 13.9 18 Este 29 Este 0 970.5 0.5 55
2020-03-18 09:00:00 12.5 8 Nordeste 21 Este 0 970.4 0.4 64
2020-03-18 08:00:00 11.6 10 Nordeste 27 Nordeste 0 970.1 0.6 64
2020-03-18 07:00:00 10.9 13 Nordeste 30 Nordeste 0 970 0.5 68
2020-03-18 06:00:00 11.6 10 Nordeste 33 Este 0 970 0.3 65
2020-03-18 05:00:00 12 16 Este 34 Este 0 969.5 -0.3 64
2020-03-18 04:00:00 12.3 19 Este 35 Este 0 969.5 -0.1 63
2020-03-18 03:00:00 12.7 23 Este 39 Este 0 969.7 -0.5 64
2020-03-18 02:00:00 13.7 23 Este 41 Este 0 969.8 -1.1 63
2020-03-18 01:00:00 14.1 23 Este 36 Este 0 969.6 -1 66
2020-03-18 00:00:00 13.9 19 Nordeste 32 Nordeste 0 970.2 0.1 68
2020-03-17 23:00:00 14.5 18 Este 35 Este 0 970.9 1.7 66
2020-03-17 22:00:00 14.8 18 Este 31 Este 0 970.6 2 64
2020-03-17 21:00:00 15.7 20 Este 32 Este 0 970.1 1.9 59
2020-03-17 20:00:00 16 11 Este 21 Nordeste 0 969.2 1 53
2020-03-17 19:00:00 17.3 13 Este 32 Este 0 968.6 0.4 39
2020-03-17 18:00:00 18.6 19 Este 30 Nordeste 0 968.2 -0.3 30
2020-03-17 17:00:00 17.6 19 Este 40 Nordeste 0 968.2 -0.8 37
2020-03-17 16:00:00 16.5 20 Este 39 Este 0 968.2 -0.9 38
2020-03-17 15:00:00 16.4 18 Este 32 Este 0 968.5 -0.8 32
2020-03-17 14:00:00 15.3 19 Este 32 Este 0 969 -0.3 35
2020-03-17 13:00:00 14.8 14 Este 25 Nordeste 0 969.1 0.3 44
2020-03-17 12:00:00 12.6 10 Este 23 Este 0 969.3 1.2 50
2020-03-17 11:00:00 11.5 9 Nordeste 21 Nordeste 0 969.3 1.9 55
2020-03-17 10:00:00 10.1 8 Norte 17 Nordeste 0 968.8 2.4 56
2020-03-17 09:00:00 7.8 9 Norte 15 Nordeste 0 968.1 2.6 65
2020-03-17 08:00:00 4.7 8 Noroeste 15 Oeste 0 967.4 2.3 78
2020-03-17 07:00:00 5.2 4 Este 19 Este 0 966.4 1.3 74
2020-03-17 06:00:00 5.3 4 Sur 13 Nordeste 0 965.5 0.3 74
2020-03-17 05:00:00 6 9 Este 21 Este 0 965.1 0.5 72
2020-03-17 04:00:00 6 9 Este 21 Este 0 965.1 0.6 73
2020-03-17 03:00:00 5.8 9 Este 19 Este 0 965.2 0.7 75
2020-03-17 02:00:00 5.5 10 Este 17 Este 0 964.6 0.4 78
2020-03-17 01:00:00 5.9 7 Nordeste 16 Este 0 964.5 1.1 76
2020-03-17 00:00:00 6 6 Este 15 Nordeste 0 964.5 1.9 74
2020-03-16 23:00:00 5.2 7 Nordeste 15 Norte 0 964.2 2.5 79
2020-03-16 22:00:00 6 5 Nordeste 17 Este 0 963.4 2.2 78
2020-03-16 21:00:00 5.4 4 Nordeste 12 Nordeste 0 962.6 1.9 80
2020-03-16 20:00:00 5.8 8 Nordeste 21 Este 0 961.7 1.4 78
2020-03-16 19:00:00 6.7 9 Nordeste 16 Nordeste 0 961.2 1.3 74
2020-03-16 18:00:00 6.5 2 Sudoeste 10 Noroeste 0.2 960.7 0.8 81
2020-03-16 17:00:00 5.8 6 Oeste 21 Noroeste 0 960.3 -0.1 78
2020-03-16 16:00:00 7.8 12 Este 18 Este 0 959.9 0.1 70
2020-03-16 15:00:00 7.1 5 Sudeste 15 Norte 0.6 959.9 -0.3 73
2020-03-16 14:00:00 6 17 Norte 40 Norte 1.4 960.4 -0.3 79
2020-03-16 13:00:00 11.6 13 Sudoeste 24 Oeste 0 959.8 -1.2 45
2020-03-16 12:00:00 10.7 12 Sudoeste 24 Oeste 0 960.2 -0.7 53
2020-03-16 11:00:00 8.7 14 Sudoeste 23 Sudoeste 0 960.7 0.2 57
2020-03-16 10:00:00 6.4 16 Sudoeste 28 Oeste 0 961 1 62
2020-03-16 09:00:00 6 9 Sudoeste 27 Sudoeste 0 960.9 1.1 65
2020-03-16 08:00:00 4.7 12 Sudoeste 27 Oeste 0 960.5 0.8 68
2020-03-16 07:00:00 4.5 16 Oeste 34 Oeste 0 960 0.1 68
2020-03-16 06:00:00 4.6 15 Oeste 35 Oeste 0 959.8 -0.3 67
2020-03-16 05:00:00 4.8 20 Oeste 36 Oeste 0 959.7 -0.5 67
2020-03-16 04:00:00 5.3 15 Oeste 31 Oeste 0 959.9 -0.6 67
2020-03-16 03:00:00 6.2 14 Oeste 33 Oeste 0 960.1 -0.4 66
2020-03-16 02:00:00 7.7 25 Oeste 43 Oeste 0 960.2 -0.3 65
2020-03-16 01:00:00 9.2 18 Oeste 34 Oeste 0 960.5 0 66
2020-03-16 00:00:00 11.1 23 Oeste 41 Oeste 0 960.5 0.5 61
2020-03-15 23:00:00 13 22 Oeste 36 Oeste 0 960.5 1.2 54
2020-03-15 22:00:00 13.9 16 Oeste 29 Oeste 0 960.5 2 54
2020-03-15 21:00:00 15.5 17 Oeste 33 Oeste 0 960 1.3 65
2020-03-15 20:00:00 16.4 16 Oeste 28 Oeste 0 959.3 0.2 60
2020-03-15 19:00:00 15.7 14 Sudoeste 41 Oeste 3.4 958.5 -1.3 73
2020-03-15 18:00:00 17.9 15 Oeste 32 Oeste 1.2 958.7 -1.9 59
2020-03-15 17:00:00 20.5 12 Oeste 24 Oeste 0 959.1 -2.7 50
2020-03-15 16:00:00 21.9 15 Oeste 28 Noroeste 0 959.8 -3 43
2020-03-15 15:00:00 21.5 14 Oeste 30 Oeste 0 960.6 -2.8 46
2020-03-15 14:00:00 21 12 Sudoeste 21 Oeste 0 961.8 -2.2 49
2020-03-15 13:00:00 20.6 11 Sudoeste 19 Sudoeste 0 962.8 -1.2 51
2020-03-15 12:00:00 18.9 6 Noroeste 12 Noroeste 0 963.4 -0.4 61
2020-03-15 11:00:00 16.9 7 Norte 11 Norte 0 964 0.5 71
2020-03-15 10:00:00 14.1 5 Nordeste 9 Norte 0 964 0.6 83
2020-03-15 09:00:00 11.5 4 Noroeste 6 Norte 0 963.8 0.7 86
2020-03-15 08:00:00 10.2 2 Sudeste 4 Sudeste 0 963.5 0.2 89
2020-03-15 07:00:00 9.5 0 Calma 5 Sudoeste 0 963.4 -0.3 88
2020-03-15 06:00:00 10.2 2 Sur 3 Sudeste 0 963.1 -1 87
2020-03-15 05:00:00 11.1 0 Calma 5 Sudoeste 0 963.3 -1.1 85
2020-03-15 04:00:00 11.5 3 Sur 5 Sudeste 0 963.7 -0.9 85
2020-03-15 03:00:00 12.5 3 Sudoeste 5 Sudoeste 0 964.1 -0.8 82
2020-03-15 02:00:00 12.5 2 Norte 6 Sur 0 964.4 -0.7 80
2020-03-15 01:00:00 12.7 0 Calma 6 Sudeste 0 964.6 -0.5 81
2020-03-15 00:00:00 13.4 3 Sudeste 9 Nordeste 0 964.9 -0.1 77
2020-03-14 23:00:00 14.7 6 Sudoeste 7 Sudoeste 0 965.1 0.2 72
2020-03-14 22:00:00 15.1 3 Sudeste 7 Sudeste 0 965.1 0.5 69
2020-03-14 21:00:00 16.2 3 Sur 8 Sur 0 965 0.5 64
2020-03-14 20:00:00 18.1 3 Sudoeste 10 Noroeste 0 964.9 0.3 57
2020-03-14 19:00:00 20.9 7 Noroeste 12 Noroeste 0 964.6 -0.4 49
2020-03-14 18:00:00 22.5 9 Noroeste 14 Noroeste 0 964.5 -1.1 42
2020-03-14 17:00:00 22.9 5 Noroeste 12 Oeste 0 964.6 -1.8 40
2020-03-14 16:00:00 21.3 7 Oeste 16 Noroeste 0 965 -2.2 44
2020-03-14 15:00:00 21.8 9 Oeste 19 Noroeste 0 965.6 -2.1 48
2020-03-14 14:00:00 20.5 6 Oeste 11 Noroeste 0 966.4 -1.7 57
2020-03-14 13:00:00 18.2 5 Noroeste 10 Norte 0 967.2 -0.6 70
2020-03-14 12:00:00 15 3 Noroeste 10 Norte 0 967.7 0.4 80
2020-03-14 11:00:00 13.3 4 Norte 8 Sudeste 0 968.1 1.1 88
2020-03-14 10:00:00 12.5 4 Nordeste 8 Norte 0 967.8 1.3 91
2020-03-14 09:00:00 12.1 3 Nordeste 9 Nordeste 0 967.3 1.2 92
2020-03-14 08:00:00 11.7 2 Sudoeste 5 Norte 0 967 1.2 91
2020-03-14 07:00:00 11.3 2 Sudoeste 10 Nordeste 0 966.5 0.4 89
2020-03-14 06:00:00 11.1 8 Nordeste 10 Norte 0 966.1 0.1 89
2020-03-14 05:00:00 11 3 Nordeste 5 Noroeste 0 965.8 -0.3 90
2020-03-14 04:00:00 10.3 2 Noroeste 4 Noroeste 0 966.1 0 88
2020-03-14 03:00:00 10.9 0 Calma 5 Sur 0 966 0 87
2020-03-14 02:00:00 11.8 2 Sur 7 Sur 0 966.1 0.3 86
2020-03-14 01:00:00 13.6 5 Sur 10 Sur 0 966.1 0.6 81
2020-03-14 00:00:00 14.2 5 Sur 14 Sudoeste 0 966 1 78
2020-03-13 23:00:00 14.5 5 Oeste 11 Oeste 0 965.8 1.3 78
2020-03-13 22:00:00 15 2 Oeste 13 Oeste 0 965.5 1.4 72
2020-03-13 21:00:00 16.3 10 Sudoeste 15 Oeste 0 965 1.2 69
2020-03-13 20:00:00 17.2 9 Oeste 16 Oeste 0 964.5 0.7 64
2020-03-13 19:00:00 19.5 8 Oeste 17 Oeste 0 964.1 0.2 51
2020-03-13 18:00:00 21.5 10 Sudoeste 17 Oeste 0 963.8 -0.6 42
2020-03-13 17:00:00 21.6 12 Oeste 23 Oeste 0 963.8 -1.2 47
2020-03-13 16:00:00 21.5 12 Oeste 20 Oeste 0 963.9 -1.7 48
2020-03-13 15:00:00 21.5 13 Oeste 21 Oeste 0 964.4 -1.5 44
2020-03-13 14:00:00 20.7 10 Oeste 19 Oeste 0 965 -1.1 51
2020-03-13 13:00:00 20.2 8 Oeste 17 Oeste 0 965.6 -0.5 55
2020-03-13 12:00:00 19.2 5 Norte 10 Norte 0 965.9 0.2 59
2020-03-13 11:00:00 16.7 4 Norte 8 Noroeste 0 966.1 0.9 66
2020-03-13 10:00:00 14.7 3 Sudoeste 9 Oeste 0 966.1 1.1 70
2020-03-13 09:00:00 11.7 7 Oeste 10 Oeste 0 965.7 1 84
2020-03-13 08:00:00 9.6 2 Sudoeste 6 Sudoeste 0 965.2 0.7 87
2020-03-13 07:00:00 10.2 2 Sudoeste 6 Norte 0 965 0.5 83
2020-03-13 06:00:00 10.2 2 Norte 8 Sudeste 0 964.7 -0.4 83
2020-03-13 05:00:00 11.2 3 Sudeste 5 Nordeste 0 964.5 -0.7 81
2020-03-13 04:00:00 12.3 3 Este 7 Sudeste 0 964.5 -1.1 76
2020-03-13 03:00:00 14.1 5 Sudeste 11 Sudoeste 0 965.1 -0.7 70
2020-03-13 02:00:00 15.2 4 Sudeste 11 Oeste 0 965.2 -0.2 66
2020-03-13 01:00:00 16.8 5 Sudeste 22 Sudoeste 0 965.6 0.4 58
2020-03-13 00:00:00 17.2 6 Noroeste 11 Noroeste 0 965.8 1 54
2020-03-12 23:00:00 18.3 3 Este 25 Sudoeste 0 965.4 1 51
2020-03-12 22:00:00 18.6 5 Noroeste 23 Sudoeste 0 965.2 1 50
2020-03-12 21:00:00 18.6 6 Sudoeste 10 Sudoeste 0 964.8 0.7 46
2020-03-12 20:00:00 20.4 5 Oeste 13 Noroeste 0 964.4 0.3 39
2020-03-12 19:00:00 23.5 5 Sudoeste 15 Sudoeste 0 964.2 -0.3 31
2020-03-12 18:00:00 25.8 9 Oeste 22 Oeste 0 964.1 -1.2 26
2020-03-12 17:00:00 26.6 6 Oeste 27 Sur 0 964.1 -2.1 25
2020-03-12 16:00:00 26.7 8 Sudoeste 16 Sudoeste 0 964.5 -2.7 24
2020-03-12 15:00:00 25.7 9 Sudoeste 27 Sudoeste 0 965.3 -2.4 26
2020-03-12 14:00:00 26 12 Sur 23 Sur 0 966.2 -2 25
2020-03-12 13:00:00 23.5 6 Noroeste 11 Norte 0 967.2 -0.8 47
2020-03-12 12:00:00 21.4 3 Nordeste 9 Sudeste 0 967.7 -0.1 51
2020-03-12 11:00:00 18.3 4 Norte 8 Noroeste 0 968.2 0.7 59
2020-03-12 10:00:00 16 2 Noroeste 5 Noroeste 0 968 0.8 66
2020-03-12 09:00:00 10.9 0 Calma 3 Sudeste 0 967.8 0.8 84
2020-03-12 08:00:00 8.7 3 Sur 5 Norte 0 967.5 0.6 86
2020-03-12 07:00:00 10.3 3 Sur 6 Sudoeste 0 967.2 -0.3 83
2020-03-12 06:00:00 10.3 0 Calma 5 Sur 0 967 -1.1 82
2020-03-12 05:00:00 11.3 4 Oeste 6 Oeste 0 966.9 -1.8 80
2020-03-12 04:00:00 10.4 0 Calma 5 Oeste 0 967.5 -1.2 82
2020-03-12 03:00:00 11.8 4 Sur 8 Sudoeste 0 968.1 -1.2 78
2020-03-12 02:00:00 11.4 0 Calma 5 Sudeste 0 968.7 -0.6 80
2020-03-12 01:00:00 13.4 3 Sur 6 Sudeste 0 968.7 -0.3 71
2020-03-12 00:00:00 13.9 3 Sur 8 Oeste 0 969.3 0.4 69
2020-03-11 23:00:00 14.6 0 Calma 7 Oeste 0 969.3 0.4 69
2020-03-11 22:00:00 15.9 2 Sur 8 Sudeste 0 969 0 67
2020-03-11 21:00:00 17 2 Sur 8 Sudeste 0 968.9 -0.2 58
2020-03-11 20:00:00 19.7 5 Sur 9 Sudeste 0 968.9 -0.2 49
2020-03-11 19:00:00 23 4 Sur 6 Norte 0 969 -0.5 45
2020-03-11 18:00:00 25.9 4 Norte 8 Noroeste 0 969.1 -0.9 32
2020-03-11 17:00:00 26.2 5 Noroeste 11 Norte 0 969.1 -1.6 31
2020-03-11 16:00:00 26.2 5 Noroeste 9 Oeste 0 969.5 -2 32
2020-03-11 15:00:00 24.4 5 Noroeste 12 Noroeste 0 970 -2.2 44
2020-03-11 14:00:00 22.3 3 Sudoeste 8 Oeste 0 970.7 -1.8 44
2020-03-11 13:00:00 20.7 4 Norte 9 Norte 0 971.5 -1.1 47
2020-03-11 12:00:00 18.1 4 Norte 7 Noroeste 0 972.2 0 55
2020-03-11 11:00:00 16.1 4 Norte 6 Nordeste 0 972.5 0.6 60
2020-03-11 10:00:00 13.2 3 Noroeste 6 Norte 0 972.6 0.8 68
2020-03-11 09:00:00 11.3 0 Calma 4 Este 0 972.2 0.6 76
2020-03-11 08:00:00 8.1 3 Sudeste 6 Sur 0 971.9 0.4 85
2020-03-11 07:00:00 7.8 2 Sudeste 5 Sur 0 971.8 0.1 84
2020-03-11 06:00:00 8.8 0 Calma 6 Sudoeste 0 971.6 -0.7 83
2020-03-11 05:00:00 8.7 3 Sudoeste 6 Sudeste 0 971.5 -1.1 84
2020-03-11 04:00:00 9 0 Calma 7 Sudoeste 0 971.7 -1.3 80
2020-03-11 03:00:00 9.8 5 Sudoeste 7 Oeste 0 972.3 -1.1 80
2020-03-11 02:00:00 10 0 Calma 5 Norte 0 972.6 -0.7 78
2020-03-11 01:00:00 11.4 2 Sudoeste 6 Sur 0 973 0 72
2020-03-11 00:00:00 12.3 2 Noroeste 7 Oeste 0 973.4 0.5 69
2020-03-10 23:00:00 12.9 0 Calma 6 Sudeste 0 973.3 0.6 66
2020-03-10 22:00:00 14.1 3 Este 9 Sudeste 0 973 0.4 61
2020-03-10 21:00:00 16.7 5 Sur 8 Sur 0 972.9 0.4 48
2020-03-10 20:00:00 18.1 5 Sudoeste 7 Sudoeste 0 972.7 0 46
2020-03-10 19:00:00 22.3 5 Oeste 12 Oeste 0 972.6 -0.5 34
2020-03-10 18:00:00 24.2 3 Norte 10 Noroeste 0 972.5 -1.1 30
2020-03-10 17:00:00 24.1 4 Norte 13 Norte 0 972.7 -1.7 29
2020-03-10 16:00:00 23.6 6 Noroeste 13 Noroeste 0 973.1 -1.8 27
2020-03-10 15:00:00 23 6 Noroeste 13 Noroeste 0 973.6 -1.7 30
2020-03-10 14:00:00 20.8 5 Oeste 10 Oeste 0 974.4 -0.7 41
2020-03-10 13:00:00 19.3 5 Noroeste 9 Noroeste 0 974.9 -0.1 47
2020-03-10 12:00:00 16.7 5 Norte 10 Noroeste 0 975.3 0.5 54
2020-03-10 11:00:00 14.4 4 Noroeste 8 Noroeste 0 975.1 0.4 59
2020-03-10 10:00:00 12.6 2 Norte 6 Norte 0 975 0.7 67
2020-03-10 09:00:00 9.4 2 Este 6 Sur 0 974.8 0.8 76
2020-03-10 08:00:00 5.6 3 Sudoeste 5 Nordeste 0 974.7 0.8 86
2020-03-10 07:00:00 6.3 3 Noroeste 6 Sudoeste 0 974.3 0.4 85
2020-03-10 06:00:00 5.9 3 Sudoeste 5 Sudoeste 0 974 0 83
2020-03-10 05:00:00 7.1 0 Calma 9 Sur 0 973.9 -0.1 80
2020-03-10 04:00:00 6.9 2 Sudoeste 5 Oeste 0 973.9 -0.3 82
2020-03-10 03:00:00 7.9 2 Sudeste 7 Sudoeste 0 974 0.1 78
2020-03-10 02:00:00 8.1 2 Oeste 9 Oeste 0 974 0.3 76
2020-03-10 01:00:00 8.8 3 Sudoeste 6 Sudoeste 0 974.2 0.9 76
2020-03-10 00:00:00 9.7 0 Calma 6 Sur 0 973.9 0.9 70